Back to Top

Language: 

My Weather Underground Personal Weather Station Historical Data with Graphs...

Delerius Weather Station Historical Data
Daily Summary for January 31, 2018 Units:  English    Metric   Both
« Previous Day
Next Day »
Daily Weekly Monthly Yearly Custom
  High: Low: Average:
Temperature: 45.5 °F 36.1 °F 39.5 °F
Dew Point: 41.1 °F 33.2 °F 35.9 °F
Humidity: 94 % 81 % 87 %
Wind Speed: 22.0 mph 4.0 mph 13.2 mph
Wind Gust: 37.0 mph - -
Wind:- - West
Pressure: 29.76 in 29.35 in -
Precipitation: 0.08 in    
Historical Graphs
 
 
Tabular Data for January 31, 2018
Time Temperature Dew Point Pressure Wind Wind Speed Wind Gust Humidity Rainfall Rate (Hourly) solar Conditions
00:01 39.7 °F 37.9 °F 29.76 in SW 6.0 mph 10.0 mph 93 % 0.00 in 0 W/m2
00:06 39.7 °F 37.9 °F 29.75 in SSW 8.0 mph 11.0 mph 93 % 0.00 in 0 W/m2
00:11 39.7 °F 37.9 °F 29.76 in SW 8.0 mph 12.0 mph 93 % 0.00 in 0 W/m2
00:16 39.9 °F 38.3 °F 29.75 in SW 7.0 mph 12.0 mph 94 % 0.00 in 0 W/m2
00:21 40.1 °F 38.2 °F 29.75 in SW 9.0 mph 14.0 mph 93 % 0.00 in 0 W/m2
00:26 40.3 °F 38.4 °F 29.74 in SW 7.0 mph 11.0 mph 93 % 0.00 in 0 W/m2
00:31 40.3 °F 38.4 °F 29.74 in SW 7.0 mph 10.0 mph 93 % 0.00 in 0 W/m2
00:36 40.3 °F 38.4 °F 29.74 in SW 8.0 mph 10.0 mph 93 % 0.00 in 0 W/m2
00:41 40.5 °F 38.6 °F 29.73 in SW 7.0 mph 11.0 mph 93 % 0.00 in 0 W/m2
00:46 40.5 °F 38.6 °F 29.73 in SW 7.0 mph 9.0 mph 93 % 0.00 in 0 W/m2
00:52 40.6 °F 38.8 °F 29.72 in SW 6.0 mph 10.0 mph 93 % 0.00 in 0 W/m2
00:57 40.6 °F 38.8 °F 29.72 in SW 5.0 mph 11.0 mph 93 % 0.00 in 0 W/m2
01:02 40.8 °F 39.0 °F 29.72 in SW 5.0 mph 8.0 mph 93 % 0.00 in 0 W/m2
01:07 40.8 °F 39.0 °F 29.71 in SW 5.0 mph 7.0 mph 93 % 0.00 in 0 W/m2
01:12 41.0 °F 39.1 °F 29.71 in SW 4.0 mph 6.0 mph 93 % 0.00 in 0 W/m2
01:17 41.2 °F 39.3 °F 29.70 in SW 5.0 mph 8.0 mph 93 % 0.00 in 0 W/m2
01:22 41.2 °F 39.3 °F 29.70 in WSW 5.0 mph 9.0 mph 93 % 0.00 in 0 W/m2
01:27 41.4 °F 39.5 °F 29.69 in SW 7.0 mph 10.0 mph 93 % 0.00 in 0 W/m2
01:32 41.4 °F 39.5 °F 29.69 in SW 6.0 mph 13.0 mph 93 % 0.00 in 0 W/m2
01:37 41.5 °F 39.7 °F 29.69 in SW 6.0 mph 11.0 mph 93 % 0.00 in 0 W/m2
01:42 41.9 °F 40.0 °F 29.69 in WSW 8.0 mph 13.0 mph 93 % 0.00 in 0 W/m2
01:47 42.4 °F 40.6 °F 29.68 in WSW 9.0 mph 14.0 mph 93 % 0.00 in 0 W/m2
01:52 43.0 °F 41.1 °F 29.68 in WSW 10.0 mph 18.0 mph 93 % 0.00 in 0 W/m2
01:57 43.3 °F 40.9 °F 29.68 in WSW 11.0 mph 16.0 mph 91 % 0.00 in 0 W/m2
02:02 43.5 °F 40.8 °F 29.67 in WSW 10.0 mph 20.0 mph 90 % 0.00 in 0 W/m2
02:07 43.3 °F 40.6 °F 29.67 in WSW 8.0 mph 14.0 mph 90 % 0.00 in 0 W/m2
02:12 43.3 °F 40.3 °F 29.66 in WSW 14.0 mph 25.0 mph 89 % 0.00 in 0 W/m2
02:17 43.3 °F 40.3 °F 29.67 in WSW 12.0 mph 18.0 mph 89 % 0.00 in 0 W/m2
02:22 43.5 °F 40.5 °F 29.67 in West 14.0 mph 22.0 mph 89 % 0.00 in 0 W/m2
02:27 43.7 °F 40.7 °F 29.66 in West 15.0 mph 24.0 mph 89 % 0.00 in 0 W/m2
02:32 43.5 °F 40.2 °F 29.64 in WSW 18.0 mph 29.0 mph 88 % 0.00 in 0 W/m2
02:35 43.5 °F 40.2 °F 29.64 in WSW 11.0 mph 20.0 mph 88 % 0.00 in 0 W/m2
02:40 43.5 °F 40.2 °F 29.63 in WSW 11.0 mph 20.0 mph 88 % 0.00 in 0 W/m2
02:45 43.3 °F 39.7 °F 29.63 in WSW 12.0 mph 21.0 mph 87 % 0.00 in 0 W/m2
02:50 43.3 °F 39.7 °F 29.62 in WSW 10.0 mph 15.0 mph 87 % 0.00 in 0 W/m2
02:55 43.3 °F 39.7 °F 29.62 in WSW 11.0 mph 21.0 mph 87 % 0.00 in 0 W/m2
03:00 43.3 °F 39.7 °F 29.61 in WSW 8.0 mph 13.0 mph 87 % 0.00 in 0 W/m2
03:05 43.3 °F 39.7 °F 29.61 in SW 10.0 mph 15.0 mph 87 % 0.00 in 0 W/m2
03:10 43.3 °F 39.7 °F 29.61 in WSW 10.0 mph 14.0 mph 87 % 0.00 in 0 W/m2
03:15 43.5 °F 39.9 °F 29.61 in WSW 10.0 mph 15.0 mph 87 % 0.00 in 0 W/m2
03:20 43.5 °F 39.6 °F 29.60 in WSW 8.0 mph 13.0 mph 86 % 0.00 in 0 W/m2
03:25 43.5 °F 39.6 °F 29.60 in WSW 9.0 mph 16.0 mph 86 % 0.00 in 0 W/m2
03:30 43.7 °F 39.8 °F 29.59 in WSW 9.0 mph 16.0 mph 86 % 0.00 in 0 W/m2
03:35 43.9 °F 39.7 °F 29.59 in WSW 10.0 mph 19.0 mph 85 % 0.00 in 0 W/m2
03:40 44.1 °F 39.8 °F 29.58 in WSW 9.0 mph 16.0 mph 85 % 0.00 in 0 W/m2
03:45 44.2 °F 40.0 °F 29.57 in WSW 11.0 mph 20.0 mph 85 % 0.00 in 0 W/m2
03:50 44.4 °F 39.9 °F 29.57 in WSW 15.0 mph 23.0 mph 84 % 0.00 in 0 W/m2
03:55 44.6 °F 40.1 °F 29.57 in WSW 13.0 mph 23.0 mph 84 % 0.00 in 0 W/m2
04:00 44.8 °F 39.9 °F 29.56 in WSW 16.0 mph 28.0 mph 83 % 0.00 in 0 W/m2
04:05 44.8 °F 39.9 °F 29.56 in WSW 12.0 mph 22.0 mph 83 % 0.00 in 0 W/m2
04:10 45.0 °F 39.8 °F 29.56 in WSW 17.0 mph 29.0 mph 82 % 0.00 in 0 W/m2
04:15 45.1 °F 40.0 °F 29.55 in WSW 13.0 mph 20.0 mph 82 % 0.00 in 0 W/m2
04:20 45.3 °F 39.8 °F 29.55 in WSW 14.0 mph 22.0 mph 81 % 0.00 in 0 W/m2
04:25 45.3 °F 39.8 °F 29.54 in WSW 16.0 mph 24.0 mph 81 % 0.00 in 0 W/m2
04:30 45.5 °F 40.0 °F 29.54 in WSW 15.0 mph 22.0 mph 81 % 0.00 in 0 W/m2
04:35 45.3 °F 39.8 °F 29.54 in WSW 15.0 mph 25.0 mph 81 % 0.00 in 0 W/m2
04:40 45.3 °F 40.1 °F 29.53 in WSW 17.0 mph 27.0 mph 82 % 0.00 in 0 W/m2
04:45 45.1 °F 40.0 °F 29.54 in WSW 17.0 mph 24.0 mph 82 % 0.00 in 0 W/m2
04:50 45.1 °F 40.0 °F 29.54 in WSW 19.0 mph 30.0 mph 82 % 0.00 in 0 W/m2
04:55 45.1 °F 40.0 °F 29.53 in WSW 15.0 mph 25.0 mph 82 % 0.00 in 0 W/m2
05:00 45.3 °F 40.5 °F 29.53 in WSW 16.0 mph 24.0 mph 83 % 0.00 in 0 W/m2
05:05 45.3 °F 40.5 °F 29.53 in WSW 13.0 mph 21.0 mph 83 % 0.00 in 0 W/m2
05:10 45.3 °F 40.5 °F 29.53 in WSW 15.0 mph 23.0 mph 83 % 0.00 in 0 W/m2
05:15 45.3 °F 40.1 °F 29.52 in WSW 16.0 mph 24.0 mph 82 % 0.00 in 0 W/m2
05:20 45.3 °F 39.8 °F 29.52 in WSW 17.0 mph 30.0 mph 81 % 0.00 in 0 W/m2
05:26 45.3 °F 39.8 °F 29.52 in WSW 15.0 mph 24.0 mph 81 % 0.00 in 0 W/m2
05:31 45.3 °F 40.5 °F 29.51 in WSW 14.0 mph 24.0 mph 83 % 0.00 in 0 W/m2
05:36 45.0 °F 40.1 °F 29.52 in WSW 20.0 mph 28.0 mph 83 % 0.00 in 0 W/m2
05:41 44.6 °F 40.1 °F 29.52 in WSW 17.0 mph 28.0 mph 84 % 0.00 in 0 W/m2
05:46 44.2 °F 40.0 °F 29.52 in WSW 15.0 mph 31.0 mph 85 % 0.00 in 0 W/m2
05:51 44.1 °F 39.8 °F 29.53 in West 19.0 mph 28.0 mph 85 % 0.00 in 0 W/m2
05:56 43.3 °F 39.4 °F 29.52 in West 20.0 mph 28.0 mph 86 % 0.01 in 0 W/m2
06:01 42.8 °F 38.9 °F 29.53 in West 18.0 mph 30.0 mph 86 % 0.01 in 0 W/m2
06:06 42.3 °F 38.4 °F 29.53 in WNW 18.0 mph 31.0 mph 86 % 0.01 in 0 W/m2
06:11 41.5 °F 37.7 °F 29.55 in WNW 19.0 mph 34.0 mph 86 % 0.01 in 0 W/m2
06:16 40.8 °F 37.3 °F 29.55 in WNW 15.0 mph 26.0 mph 87 % 0.01 in 0 W/m2
06:21 40.3 °F 36.7 °F 29.56 in WNW 14.0 mph 23.0 mph 87 % 0.01 in 0 W/m2
06:26 39.6 °F 36.3 °F 29.56 in WNW 16.0 mph 27.0 mph 88 % 0.01 in 0 W/m2
06:31 39.0 °F 35.8 °F 29.56 in WNW 19.0 mph 31.0 mph 88 % 0.01 in 0 W/m2
06:36 38.8 °F 35.9 °F 29.56 in WNW 11.0 mph 24.0 mph 89 % 0.01 in 0 W/m2
06:41 38.7 °F 35.7 °F 29.56 in WNW 12.0 mph 20.0 mph 89 % 0.01 in 0 W/m2
06:46 38.5 °F 35.5 °F 29.56 in West 9.0 mph 14.0 mph 89 % 0.01 in 0 W/m2
06:51 38.5 °F 35.5 °F 29.56 in West 11.0 mph 18.0 mph 89 % 0.01 in 0 W/m2
06:56 38.5 °F 35.8 °F 29.56 in West 12.0 mph 19.0 mph 90 % 0.00 in 0 W/m2
07:01 38.5 °F 35.8 °F 29.56 in West 12.0 mph 16.0 mph 90 % 0.00 in 0 W/m2
07:06 38.7 °F 35.7 °F 29.57 in West 10.0 mph 15.0 mph 89 % 0.00 in 0 W/m2
07:11 38.7 °F 35.7 °F 29.56 in West 9.0 mph 14.0 mph 89 % 0.00 in 0 W/m2
07:16 38.7 °F 35.7 °F 29.56 in West 11.0 mph 16.0 mph 89 % 0.00 in 0 W/m2
07:21 38.7 °F 35.4 °F 29.55 in West 12.0 mph 19.0 mph 88 % 0.00 in 0 W/m2
07:26 38.8 °F 35.6 °F 29.55 in West 11.0 mph 16.0 mph 88 % 0.00 in 0 W/m2
07:31 38.8 °F 35.6 °F 29.55 in West 10.0 mph 16.0 mph 88 % 0.00 in 0 W/m2
07:36 38.7 °F 35.4 °F 29.54 in West 9.0 mph 13.0 mph 88 % 0.00 in 0 W/m2
07:41 38.7 °F 35.4 °F 29.54 in West 9.0 mph 14.0 mph 88 % 0.00 in 0 W/m2
07:46 38.8 °F 35.6 °F 29.54 in West 10.0 mph 16.0 mph 88 % 0.00 in 0 W/m2
07:51 38.8 °F 35.6 °F 29.54 in West 12.0 mph 19.0 mph 88 % 0.00 in 0 W/m2
07:56 38.8 °F 35.3 °F 29.54 in West 13.0 mph 20.0 mph 87 % 0.00 in 0 W/m2
08:01 39.0 °F 35.5 °F 29.54 in West 15.0 mph 25.0 mph 87 % 0.00 in 5 W/m2
08:06 39.2 °F 35.4 °F 29.53 in West 10.0 mph 16.0 mph 86 % 0.00 in 5 W/m2
08:12 39.4 °F 35.5 °F 29.53 in West 14.0 mph 22.0 mph 86 % 0.00 in 7 W/m2
08:17 39.4 °F 35.2 °F 29.52 in West 13.0 mph 21.0 mph 85 % 0.00 in 7 W/m2
08:22 39.4 °F 34.9 °F 29.52 in West 12.0 mph 18.0 mph 84 % 0.00 in 11 W/m2
08:27 39.6 °F 35.1 °F 29.52 in West 12.0 mph 27.0 mph 84 % 0.00 in 16 W/m2
08:32 39.7 °F 35.0 °F 29.52 in West 14.0 mph 23.0 mph 83 % 0.00 in 18 W/m2
08:37 39.7 °F 34.7 °F 29.52 in West 12.0 mph 21.0 mph 82 % 0.00 in 25 W/m2
08:42 39.9 °F 34.9 °F 29.53 in West 14.0 mph 20.0 mph 82 % 0.00 in 16 W/m2
08:47 39.9 °F 34.9 °F 29.53 in West 17.0 mph 32.0 mph 82 % 0.00 in 5 W/m2
08:52 39.7 °F 35.0 °F 29.54 in WNW 15.0 mph 26.0 mph 83 % 0.00 in 9 W/m2
08:57 38.5 °F 34.4 °F 29.54 in West 12.0 mph 21.0 mph 85 % 0.00 in 7 W/m2
09:02 37.6 °F 34.1 °F 29.53 in West 9.0 mph 15.0 mph 87 % 0.00 in 12 W/m2
09:07 37.0 °F 33.8 °F 29.53 in West 7.0 mph 11.0 mph 88 % 0.00 in 19 W/m2
09:12 36.9 °F 33.9 °F 29.53 in West 6.0 mph 10.0 mph 89 % 0.00 in 44 W/m2
09:15 36.7 °F 34.0 °F 29.53 in West 7.0 mph 12.0 mph 90 % 0.00 in 39 W/m2
09:20 36.9 °F 34.2 °F 29.53 in West 8.0 mph 13.0 mph 90 % 0.01 in 32 W/m2
09:25 37.0 °F 34.4 °F 29.53 in WSW 10.0 mph 19.0 mph 90 % 0.01 in 46 W/m2
09:30 37.2 °F 34.6 °F 29.53 in WSW 15.0 mph 25.0 mph 90 % 0.01 in 37 W/m2
09:35 37.6 °F 34.6 °F 29.53 in West 15.0 mph 29.0 mph 89 % 0.01 in 46 W/m2
09:40 37.6 °F 33.8 °F 29.53 in West 14.0 mph 22.0 mph 86 % 0.01 in 49 W/m2
09:46 37.9 °F 34.1 °F 29.52 in West 14.0 mph 24.0 mph 86 % 0.02 in 56 W/m2
09:51 37.9 °F 33.8 °F 29.53 in WNW 13.0 mph 20.0 mph 85 % 0.02 in 65 W/m2
09:56 38.1 °F 34.3 °F 29.52 in WNW 13.0 mph 18.0 mph 86 % 0.02 in 276 W/m2
10:01 38.7 °F 35.1 °F 29.53 in West 11.0 mph 16.0 mph 87 % 0.02 in 376 W/m2
10:06 39.0 °F 35.2 °F 29.53 in West 9.0 mph 19.0 mph 86 % 0.02 in 58 W/m2
10:11 39.0 °F 35.2 °F 29.53 in West 10.0 mph 18.0 mph 86 % 0.02 in 39 W/m2
10:16 38.8 °F 35.3 °F 29.53 in West 7.0 mph 13.0 mph 87 % 0.02 in 49 W/m2
10:21 38.7 °F 35.1 °F 29.53 in WNW 8.0 mph 13.0 mph 87 % 0.01 in 93 W/m2
10:26 38.7 °F 35.4 °F 29.53 in West 10.0 mph 16.0 mph 88 % 0.01 in 359 W/m2
10:31 39.0 °F 36.1 °F 29.53 in West 10.0 mph 23.0 mph 89 % 0.01 in 410 W/m2
10:36 39.7 °F 36.2 °F 29.52 in West 11.0 mph 21.0 mph 87 % 0.01 in 385 W/m2
10:41 40.5 °F 36.3 °F 29.52 in West 15.0 mph 23.0 mph 85 % 0.00 in 387 W/m2
10:46 41.2 °F 36.7 °F 29.52 in West 14.0 mph 25.0 mph 84 % 0.00 in 410 W/m2
10:51 40.5 °F 35.4 °F 29.53 in West 18.0 mph 24.0 mph 82 % 0.00 in 56 W/m2
10:56 39.4 °F 34.9 °F 29.53 in West 15.0 mph 26.0 mph 84 % 0.00 in 67 W/m2
11:01 38.3 °F 34.8 °F 29.52 in West 14.0 mph 20.0 mph 87 % 0.01 in 118 W/m2
11:06 37.9 °F 35.0 °F 29.52 in West 12.0 mph 20.0 mph 89 % 0.01 in 155 W/m2
11:11 37.9 °F 35.3 °F 29.52 in West 10.0 mph 14.0 mph 90 % 0.01 in 204 W/m2
11:16 38.1 °F 35.4 °F 29.51 in West 12.0 mph 24.0 mph 90 % 0.01 in 329 W/m2
11:21 38.7 °F 35.7 °F 29.52 in West 13.0 mph 19.0 mph 89 % 0.01 in 241 W/m2
11:26 38.7 °F 35.7 °F 29.53 in West 16.0 mph 36.0 mph 89 % 0.01 in 84 W/m2
11:31 37.6 °F 34.1 °F 29.52 in West 16.0 mph 26.0 mph 87 % 0.01 in 33 W/m2
11:36 36.9 °F 33.6 °F 29.51 in West 15.0 mph 27.0 mph 88 % 0.01 in 65 W/m2
11:41 36.7 °F 33.5 °F 29.51 in West 13.0 mph 22.0 mph 88 % 0.02 in 146 W/m2
11:46 37.2 °F 34.0 °F 29.51 in West 12.0 mph 21.0 mph 88 % 0.02 in 141 W/m2
11:51 37.8 °F 34.5 °F 29.50 in West 9.0 mph 19.0 mph 88 % 0.02 in 332 W/m2
11:56 38.3 °F 35.1 °F 29.50 in West 10.0 mph 16.0 mph 88 % 0.02 in 90 W/m2
12:01 38.7 °F 35.1 °F 29.50 in West 16.0 mph 22.0 mph 87 % 0.01 in 339 W/m2
12:06 39.2 °F 35.7 °F 29.49 in West 14.0 mph 22.0 mph 87 % 0.01 in 338 W/m2
12:12 39.6 °F 35.4 °F 29.50 in West 16.0 mph 24.0 mph 85 % 0.01 in 90 W/m2
12:17 39.6 °F 34.8 °F 29.50 in WSW 19.0 mph 29.0 mph 83 % 0.01 in 60 W/m2
12:22 38.7 °F 34.2 °F 29.50 in West 17.0 mph 24.0 mph 84 % 0.01 in 46 W/m2
12:27 37.9 °F 34.1 °F 29.50 in West 17.0 mph 30.0 mph 86 % 0.01 in 26 W/m2
12:32 37.6 °F 33.8 °F 29.50 in West 22.0 mph 37.0 mph 86 % 0.01 in 37 W/m2
12:37 36.9 °F 33.4 °F 29.49 in West 10.0 mph 18.0 mph 87 % 0.01 in 42 W/m2
12:42 36.7 °F 33.5 °F 29.49 in West 16.0 mph 22.0 mph 88 % 0.00 in 35 W/m2
12:47 36.5 °F 33.3 °F 29.49 in West 13.0 mph 22.0 mph 88 % 0.00 in 63 W/m2
12:52 37.0 °F 34.1 °F 29.48 in West 15.0 mph 23.0 mph 89 % 0.00 in 185 W/m2
12:57 37.9 °F 34.7 °F 29.48 in West 13.0 mph 21.0 mph 88 % 0.00 in 325 W/m2
13:02 38.5 °F 34.9 °F 29.48 in West 15.0 mph 25.0 mph 87 % 0.00 in 79 W/m2
13:07 38.8 °F 35.3 °F 29.48 in West 15.0 mph 23.0 mph 87 % 0.00 in 325 W/m2
13:12 39.6 °F 35.7 °F 29.48 in West 14.0 mph 24.0 mph 86 % 0.00 in 325 W/m2
13:17 39.9 °F 35.5 °F 29.47 in West 15.0 mph 23.0 mph 84 % 0.00 in 306 W/m2
13:22 39.7 °F 35.0 °F 29.47 in West 16.0 mph 25.0 mph 83 % 0.00 in 40 W/m2
13:27 39.4 °F 34.3 °F 29.48 in West 16.0 mph 27.0 mph 82 % 0.00 in 33 W/m2
13:32 38.8 °F 34.4 °F 29.47 in West 16.0 mph 23.0 mph 84 % 0.00 in 359 W/m2
13:37 38.3 °F 34.5 °F 29.47 in West 15.0 mph 27.0 mph 86 % 0.00 in 40 W/m2
13:42 37.9 °F 34.1 °F 29.47 in West 15.0 mph 27.0 mph 86 % 0.00 in 74 W/m2
13:47 37.9 °F 33.8 °F 29.48 in West 19.0 mph 29.0 mph 85 % 0.00 in 155 W/m2
13:52 37.9 °F 34.1 °F 29.47 in West 16.0 mph 26.0 mph 86 % 0.00 in 269 W/m2
13:57 37.9 °F 34.1 °F 29.46 in West 14.0 mph 20.0 mph 86 % 0.00 in 86 W/m2
14:02 37.9 °F 34.4 °F 29.46 in West 12.0 mph 19.0 mph 87 % 0.01 in 74 W/m2
14:07 37.8 °F 34.2 °F 29.45 in West 16.0 mph 24.0 mph 87 % 0.01 in 54 W/m2
14:12 37.8 °F 34.2 °F 29.45 in WSW 13.0 mph 19.0 mph 87 % 0.01 in 35 W/m2
14:17 37.6 °F 34.1 °F 29.45 in West 12.0 mph 18.0 mph 87 % 0.01 in 39 W/m2
14:22 37.4 °F 34.2 °F 29.45 in WSW 13.0 mph 20.0 mph 88 % 0.01 in 16 W/m2
14:27 37.0 °F 33.8 °F 29.45 in West 17.0 mph 32.0 mph 88 % 0.01 in 5 W/m2
14:33 36.7 °F 33.7 °F 29.45 in West 15.0 mph 24.0 mph 89 % 0.01 in 9 W/m2
14:38 36.1 °F 33.5 °F 29.44 in West 14.0 mph 26.0 mph 90 % 0.02 in 28 W/m2
14:43 36.1 °F 33.5 °F 29.44 in West 13.0 mph 22.0 mph 90 % 0.02 in 195 W/m2
14:48 36.7 °F 34.0 °F 29.43 in West 11.0 mph 18.0 mph 90 % 0.02 in 199 W/m2
14:53 37.2 °F 34.6 °F 29.43 in West 13.0 mph 20.0 mph 90 % 0.02 in 190 W/m2
14:58 37.8 °F 34.8 °F 29.42 in West 15.0 mph 22.0 mph 89 % 0.02 in 185 W/m2
15:03 37.9 °F 34.7 °F 29.43 in West 13.0 mph 21.0 mph 88 % 0.01 in 171 W/m2
15:08 38.3 °F 34.8 °F 29.43 in West 14.0 mph 25.0 mph 87 % 0.01 in 158 W/m2
15:13 38.5 °F 34.7 °F 29.43 in West 11.0 mph 16.0 mph 86 % 0.01 in 153 W/m2
15:18 38.7 °F 34.5 °F 29.43 in West 13.0 mph 19.0 mph 85 % 0.01 in 142 W/m2
15:23 38.5 °F 34.4 °F 29.43 in West 13.0 mph 20.0 mph 85 % 0.01 in 125 W/m2
15:28 38.5 °F 34.4 °F 29.43 in West 10.0 mph 16.0 mph 85 % 0.01 in 130 W/m2
15:33 38.5 °F 34.4 °F 29.43 in WSW 8.0 mph 15.0 mph 85 % 0.01 in 91 W/m2
15:38 38.5 °F 34.4 °F 29.43 in West 10.0 mph 18.0 mph 85 % 0.00 in 39 W/m2
15:43 38.5 °F 34.4 °F 29.43 in West 9.0 mph 15.0 mph 85 % 0.00 in 47 W/m2
15:48 38.7 °F 34.5 °F 29.42 in West 7.0 mph 13.0 mph 85 % 0.00 in 72 W/m2
15:53 38.7 °F 34.2 °F 29.42 in WSW 9.0 mph 15.0 mph 84 % 0.00 in 42 W/m2
15:58 38.7 °F 34.2 °F 29.41 in WSW 9.0 mph 21.0 mph 84 % 0.00 in 25 W/m2
16:03 38.7 °F 33.9 °F 29.41 in WSW 10.0 mph 16.0 mph 83 % 0.00 in 16 W/m2
16:08 38.7 °F 33.9 °F 29.41 in West 13.0 mph 21.0 mph 83 % 0.00 in 16 W/m2
16:13 38.7 °F 34.2 °F 29.41 in West 15.0 mph 25.0 mph 84 % 0.00 in 11 W/m2
16:18 38.5 °F 34.4 °F 29.40 in West 18.0 mph 27.0 mph 85 % 0.00 in 11 W/m2
16:23 38.1 °F 34.3 °F 29.40 in West 15.0 mph 26.0 mph 86 % 0.00 in 11 W/m2
16:28 38.3 °F 34.5 °F 29.39 in West 18.0 mph 27.0 mph 86 % 0.00 in 9 W/m2
16:33 38.5 °F 34.4 °F 29.39 in West 15.0 mph 24.0 mph 85 % 0.00 in 7 W/m2
16:38 38.5 °F 34.4 °F 29.39 in West 16.0 mph 24.0 mph 85 % 0.00 in 7 W/m2
16:44 38.5 °F 34.4 °F 29.39 in West 19.0 mph 29.0 mph 85 % 0.00 in 5 W/m2
16:49 38.5 °F 34.4 °F 29.40 in West 15.0 mph 24.0 mph 85 % 0.00 in 0 W/m2
16:54 38.3 °F 34.2 °F 29.40 in West 15.0 mph 23.0 mph 85 % 0.00 in 0 W/m2
16:59 38.1 °F 34.0 °F 29.40 in West 18.0 mph 25.0 mph 85 % 0.00 in 0 W/m2
17:04 38.1 °F 34.6 °F 29.40 in West 18.0 mph 26.0 mph 87 % 0.00 in 0 W/m2
17:09 37.9 °F 34.7 °F 29.40 in West 13.0 mph 24.0 mph 88 % 0.00 in 0 W/m2
17:14 37.8 °F 34.5 °F 29.40 in West 18.0 mph 30.0 mph 88 % 0.00 in 0 W/m2
17:19 37.6 °F 34.6 °F 29.40 in West 16.0 mph 27.0 mph 89 % 0.01 in 0 W/m2
17:24 37.4 °F 34.5 °F 29.40 in West 14.0 mph 21.0 mph 89 % 0.01 in 0 W/m2
17:29 37.6 °F 34.9 °F 29.40 in West 18.0 mph 25.0 mph 90 % 0.01 in 0 W/m2
17:34 37.6 °F 34.6 °F 29.40 in West 16.0 mph 25.0 mph 89 % 0.01 in 0 W/m2
17:39 37.6 °F 34.6 °F 29.40 in West 17.0 mph 26.0 mph 89 % 0.01 in 0 W/m2
17:44 37.6 °F 34.6 °F 29.40 in WSW 14.0 mph 23.0 mph 89 % 0.01 in 0 W/m2
17:49 37.6 °F 34.6 °F 29.40 in West 15.0 mph 25.0 mph 89 % 0.01 in 0 W/m2
17:54 37.6 °F 34.3 °F 29.40 in West 10.0 mph 16.0 mph 88 % 0.01 in 0 W/m2
17:59 37.6 °F 34.3 °F 29.40 in West 14.0 mph 22.0 mph 88 % 0.01 in 0 W/m2
18:04 37.6 °F 34.3 °F 29.39 in West 11.0 mph 21.0 mph 88 % 0.01 in 0 W/m2
18:09 37.6 °F 34.3 °F 29.39 in West 14.0 mph 25.0 mph 88 % 0.01 in 0 W/m2
18:14 37.6 °F 34.3 °F 29.39 in WSW 18.0 mph 26.0 mph 88 % 0.01 in 0 W/m2
18:19 37.8 °F 34.5 °F 29.39 in WSW 18.0 mph 29.0 mph 88 % 0.00 in 0 W/m2
18:24 37.9 °F 34.7 °F 29.39 in West 16.0 mph 26.0 mph 88 % 0.00 in 0 W/m2
18:29 37.9 °F 34.7 °F 29.38 in West 19.0 mph 29.0 mph 88 % 0.00 in 0 W/m2
18:34 38.1 °F 34.9 °F 29.38 in West 20.0 mph 28.0 mph 88 % 0.00 in 0 W/m2
18:39 38.1 °F 34.9 °F 29.38 in West 17.0 mph 25.0 mph 88 % 0.00 in 0 W/m2
18:44 38.1 °F 34.9 °F 29.38 in West 16.0 mph 27.0 mph 88 % 0.00 in 0 W/m2
18:49 37.9 °F 34.7 °F 29.38 in West 17.0 mph 28.0 mph 88 % 0.01 in 0 W/m2
18:54 38.1 °F 34.9 °F 29.38 in WSW 20.0 mph 29.0 mph 88 % 0.01 in 0 W/m2
18:59 38.3 °F 34.8 °F 29.37 in WSW 17.0 mph 28.0 mph 87 % 0.01 in 0 W/m2
19:04 38.5 °F 34.9 °F 29.38 in WSW 22.0 mph 33.0 mph 87 % 0.01 in 0 W/m2
19:09 38.3 °F 35.1 °F 29.38 in West 20.0 mph 31.0 mph 88 % 0.01 in 0 W/m2
19:14 38.1 °F 34.9 °F 29.38 in West 18.0 mph 30.0 mph 88 % 0.01 in 0 W/m2
19:20 37.8 °F 34.8 °F 29.39 in West 17.0 mph 28.0 mph 89 % 0.01 in 0 W/m2
19:25 37.8 °F 34.5 °F 29.38 in West 17.0 mph 30.0 mph 88 % 0.01 in 0 W/m2
19:30 37.8 °F 34.5 °F 29.39 in West 20.0 mph 31.0 mph 88 % 0.01 in 0 W/m2
19:35 37.8 °F 34.5 °F 29.39 in WSW 15.0 mph 25.0 mph 88 % 0.01 in 0 W/m2
19:40 37.8 °F 34.5 °F 29.39 in West 18.0 mph 26.0 mph 88 % 0.01 in 0 W/m2
19:45 37.8 °F 34.5 °F 29.39 in WSW 16.0 mph 24.0 mph 88 % 0.00 in 0 W/m2
19:50 37.9 °F 34.4 °F 29.38 in WSW 16.0 mph 26.0 mph 87 % 0.00 in 0 W/m2
19:55 38.1 °F 34.3 °F 29.38 in West 15.0 mph 26.0 mph 86 % 0.00 in 0 W/m2
20:00 38.1 °F 34.3 °F 29.38 in WSW 17.0 mph 23.0 mph 86 % 0.00 in 0 W/m2
20:05 38.3 °F 34.2 °F 29.38 in West 16.0 mph 26.0 mph 85 % 0.00 in 0 W/m2
20:10 38.1 °F 34.0 °F 29.38 in WSW 16.0 mph 25.0 mph 85 % 0.00 in 0 W/m2
20:15 38.1 °F 34.3 °F 29.38 in West 15.0 mph 22.0 mph 86 % 0.00 in 0 W/m2
20:20 38.1 °F 34.3 °F 29.38 in West 16.0 mph 26.0 mph 86 % 0.00 in 0 W/m2
20:25 38.3 °F 34.5 °F 29.38 in West 12.0 mph 20.0 mph 86 % 0.00 in 0 W/m2
20:30 38.3 °F 34.5 °F 29.38 in West 14.0 mph 22.0 mph 86 % 0.00 in 0 W/m2
20:35 38.5 °F 34.7 °F 29.38 in West 15.0 mph 26.0 mph 86 % 0.00 in 0 W/m2
20:40 38.5 °F 34.4 °F 29.38 in West 18.0 mph 25.0 mph 85 % 0.00 in 0 W/m2
20:45 38.7 °F 34.5 °F 29.37 in West 19.0 mph 29.0 mph 85 % 0.00 in 0 W/m2
20:50 38.7 °F 34.5 °F 29.37 in West 14.0 mph 24.0 mph 85 % 0.00 in 0 W/m2
20:55 38.7 °F 34.5 °F 29.37 in West 20.0 mph 28.0 mph 85 % 0.00 in 0 W/m2
21:00 38.7 °F 34.2 °F 29.37 in West 19.0 mph 32.0 mph 84 % 0.01 in 0 W/m2
21:05 38.5 °F 34.1 °F 29.36 in West 18.0 mph 31.0 mph 84 % 0.01 in 0 W/m2
21:10 38.5 °F 34.1 °F 29.36 in West 20.0 mph 28.0 mph 84 % 0.01 in 0 W/m2
21:15 38.5 °F 34.1 °F 29.36 in West 17.0 mph 29.0 mph 84 % 0.01 in 0 W/m2
21:20 38.5 °F 33.8 °F 29.35 in West 19.0 mph 29.0 mph 83 % 0.01 in 0 W/m2
21:25 38.5 °F 33.8 °F 29.35 in West 15.0 mph 21.0 mph 83 % 0.01 in 0 W/m2
21:30 38.5 °F 33.8 °F 29.35 in West 17.0 mph 25.0 mph 83 % 0.01 in 0 W/m2
21:35 38.5 °F 33.8 °F 29.35 in West 16.0 mph 23.0 mph 83 % 0.01 in 0 W/m2
21:40 38.5 °F 33.8 °F 29.36 in West 14.0 mph 22.0 mph 83 % 0.01 in 0 W/m2
21:45 38.3 °F 33.9 °F 29.36 in West 17.0 mph 28.0 mph 84 % 0.01 in 0 W/m2
21:51 38.3 °F 33.9 °F 29.36 in WSW 13.0 mph 21.0 mph 84 % 0.01 in 0 W/m2
21:56 38.1 °F 33.7 °F 29.35 in West 14.0 mph 23.0 mph 84 % 0.01 in 0 W/m2
22:01 38.1 °F 33.7 °F 29.36 in WSW 14.0 mph 21.0 mph 84 % 0.00 in 0 W/m2
22:06 38.1 °F 33.7 °F 29.35 in West 17.0 mph 32.0 mph 84 % 0.00 in 0 W/m2
22:11 38.1 °F 33.7 °F 29.36 in West 17.0 mph 25.0 mph 84 % 0.00 in 0 W/m2
22:16 38.1 °F 34.0 °F 29.36 in West 14.0 mph 25.0 mph 85 % 0.00 in 0 W/m2
22:21 37.9 °F 33.8 °F 29.36 in West 15.0 mph 26.0 mph 85 % 0.00 in 0 W/m2
22:26 37.9 °F 34.1 °F 29.36 in West 14.0 mph 23.0 mph 86 % 0.00 in 0 W/m2
22:31 37.8 °F 34.2 °F 29.36 in WSW 11.0 mph 18.0 mph 87 % 0.00 in 0 W/m2
22:36 37.6 °F 34.3 °F 29.35 in West 8.0 mph 14.0 mph 88 % 0.00 in 0 W/m2
22:41 37.2 °F 34.3 °F 29.35 in West 9.0 mph 13.0 mph 89 % 0.00 in 0 W/m2
22:46 37.2 °F 34.3 °F 29.35 in West 12.0 mph 18.0 mph 89 % 0.00 in 0 W/m2
22:51 37.0 °F 34.1 °F 29.35 in West 9.0 mph 16.0 mph 89 % 0.00 in 0 W/m2
22:56 37.0 °F 34.1 °F 29.35 in West 10.0 mph 15.0 mph 89 % 0.00 in 0 W/m2
23:01 36.9 °F 33.9 °F 29.35 in West 9.0 mph 15.0 mph 89 % 0.00 in 0 W/m2
23:06 36.9 °F 34.2 °F 29.35 in West 8.0 mph 13.0 mph 90 % 0.00 in 0 W/m2
23:11 36.7 °F 34.0 °F 29.35 in WSW 10.0 mph 21.0 mph 90 % 0.00 in 0 W/m2
23:16 36.7 °F 34.0 °F 29.36 in West 10.0 mph 16.0 mph 90 % 0.00 in 0 W/m2
23:21 36.7 °F 33.7 °F 29.36 in West 9.0 mph 12.0 mph 89 % 0.00 in 0 W/m2
23:26 36.5 °F 33.6 °F 29.36 in WNW 8.0 mph 14.0 mph 89 % 0.00 in 0 W/m2
23:31 36.3 °F 33.4 °F 29.36 in West 10.0 mph 14.0 mph 89 % 0.00 in 0 W/m2
23:36 36.3 °F 33.4 °F 29.36 in West 9.0 mph 14.0 mph 89 % 0.00 in 0 W/m2
23:41 36.1 °F 33.2 °F 29.36 in West 8.0 mph 15.0 mph 89 % 0.00 in 0 W/m2
23:46 36.1 °F 33.2 °F 29.36 in WNW 7.0 mph 10.0 mph 89 % 0.00 in 0 W/m2
23:51 36.3 °F 33.4 °F 29.37 in WNW 10.0 mph 15.0 mph 89 % 0.00 in 0 W/m2
23:56 36.3 °F 33.4 °F 29.36 in WNW 8.0 mph 13.0 mph 89 % 0.00 in 0 W/m2
Delerius-Weather
Compliments of Weather Underground - 2.25 mb

Data updates at regular intervals.